Aérodrome :
LOGIN :

S'inscrire | Disclaimer

   EN    FR    IT 

 










Légende :    VFR   VFR Marginal   IFR   IFR Intensif   IFR Très Intensif
Visi : 
Plafond : 
>= 8 km
>= 3000ft
5 à 8 km
1000 à 3000 ft
1500m à 5 km
500 à 1000 ft
800 à 1500m
200 à 500 ft
< 800m
< 200 ft
Symboles :   Orages  Brouillard  Fortes neiges  Fortes précipitations  Vent > 20 kt
SIGMETs :   Divers  Orages  Givrage  Turbulence  Onde Orograph.  Cendres Volcan.







- Altitude de l'aérodrome : 1017 ft
- Voir les cartes d'approche


LFSL - Brive Souillac

DERNIER METAR :
  • 221400Z AUTO 15005KT 120V180 1300 1000 R29/1400U -SN BR BKN003/// BKN010/// OVC015/// ///CB 00/M00 Q1007 TEMPO 2000 -SN OVC003

METARs EXPIRÉS :
  • 221330Z AUTO 14006KT 1600 1300 R29/1700U -SN BR BKN003/// OVC011/// ///TCU 00/M00 Q1007 TEMPO OVC003
  • 221300Z AUTO 14007KT 2400 -SN BR FEW007/// OVC013/// ///TCU 00/M01 Q1008 TEMPO OVC003
  • 221230Z AUTO 14008KT 110V180 9000 FEW007 OVC015 00/M01 Q1009 TEMPO 2000 -SN OVC003
  • 221200Z AUTO 14008KT 120V180 5000 -SN BR OVC016 00/M01 Q1009 TEMPO 2000 -SN OVC003
  • 221130Z AUTO 14008KT 110V180 4100 -SN BR BKN018 BKN025 OVC030 00/M02 Q1010 TEMPO 2000 -SN OVC003

TAF TAF LFSL
Valide du 22 à 12h jusqu'au 22 à 21h UTC


221100Z 2212/2221 14007KT 9999 BKN016
BECMG 2212/2214 BKN008
TEMPO 2212/2217 2000 -SN OVC003
BECMG 2214/2216 VRB02KT
BECMG 2217/2219 0800 FG VV///
PROB30
TEMPO 2219/2221 0300
Pas de NOTAMs connus pour ce terrain.



MET'MAP, la Météo Aéronautique d'un coup d'oeil ! - Copyright ORBIFLY Décembre 2007 - Disclaimer

ORBIFLY MET'MAP TEAM :

Programmation & Développement : Alexandra Zaïnal
Conception & Développement : Baudouin d'Aumeries
Co-Programmation & Développement : Marc-Olivier Méhu
Soutien technique & logistique : Manuel Goepfert

Contact : metmap@orbifly.com




SOURCES & CREDITS :

   NOAA